AXY22B EDDL-KATL
Flight info
| Callsign | AXY22B |
|---|---|
| Flight time | N/A |
| Altitude | 18000 |
| Route | NETEX6T/23L NETEX Z282 DIBIR L179 ELSIK/N0432F320 DCT DENUT/N0434F340 L610 KOPUL Q60 OKSAW DCT TEWXI DCT LIPGO DCT RESNO/M076F360 DCT 56N020W 56N030W 56N040W 55N050W DCT LOMSI/N0447F380 N662C TOPPS DCT ENE DCT BAF Q448 BIGGO/N0432F400 Q448 PTW J48 MOL DCT FLASK OZZZI1 |
| Aircraft | B737/M-SDE2E3FGHIRWXY/LB1 |
Departure
| Time | N/A |
|---|---|
| Airport | Düsseldorf Airport (EDDL) |
Arrival
| Time | 2026-05-04 23:13 |
|---|---|
| Airport | Hartsfield Jackson Atlanta International Airport (KATL) |
| Time | Latitude | Longitude | Altitude | Speed | Heading |
|---|---|---|---|---|---|
| 2026-05-04 22:40 | 35.64567 | -82.02858 | 40007 ft | 415 kts | 230° |
| 2026-05-04 22:40 | 35.62452 | -82.05386 | 40007 ft | 420 kts | 230° |
| 2026-05-04 22:41 | 35.58247 | -82.10400 | 40005 ft | 424 kts | 229° |
| 2026-05-04 22:41 | 35.53987 | -82.15465 | 40006 ft | 424 kts | 229° |
| 2026-05-04 22:42 | 35.49775 | -82.20469 | 40005 ft | 423 kts | 229° |
| 2026-05-04 22:42 | 35.45541 | -82.25494 | 40004 ft | 423 kts | 229° |
| 2026-05-04 22:43 | 35.41338 | -82.30497 | 40013 ft | 422 kts | 230° |
| 2026-05-04 22:43 | 35.37219 | -82.35613 | 40011 ft | 421 kts | 231° |
| 2026-05-04 22:44 | 35.33090 | -82.40780 | 40025 ft | 421 kts | 231° |
| 2026-05-04 22:44 | 35.28976 | -82.45896 | 40025 ft | 421 kts | 231° |
| 2026-05-04 22:45 | 35.24876 | -82.50973 | 40018 ft | 421 kts | 231° |
| 2026-05-04 22:45 | 35.18700 | -82.58607 | 40018 ft | 420 kts | 231° |
| 2026-05-04 22:46 | 35.14555 | -82.63692 | 40010 ft | 421 kts | 230° |
| 2026-05-04 22:46 | 35.10329 | -82.68707 | 39848 ft | 424 kts | 230° |
| 2026-05-04 22:47 | 35.08246 | -82.71165 | 39607 ft | 423 kts | 229° |
| 2026-05-04 22:47 | 35.06137 | -82.73654 | 39371 ft | 419 kts | 230° |
| 2026-05-04 22:47 | 35.04038 | -82.76137 | 39151 ft | 420 kts | 230° |
| 2026-05-04 22:47 | 35.01901 | -82.78670 | 38932 ft | 424 kts | 230° |
| 2026-05-04 22:48 | 34.99799 | -82.81161 | 38707 ft | 426 kts | 230° |
| 2026-05-04 22:48 | 34.98699 | -82.82465 | 38567 ft | 427 kts | 230° |
| 2026-05-04 22:48 | 34.96846 | -82.84657 | 38310 ft | 428 kts | 229° |
| 2026-05-04 22:48 | 34.94743 | -82.87141 | 38043 ft | 427 kts | 229° |
| 2026-05-04 22:49 | 34.92604 | -82.89658 | 37768 ft | 427 kts | 229° |
| 2026-05-04 22:49 | 34.90429 | -82.92185 | 37483 ft | 426 kts | 229° |
| 2026-05-04 22:49 | 34.88273 | -82.94674 | 37213 ft | 425 kts | 229° |
| 2026-05-04 22:49 | 34.86140 | -82.97135 | 36949 ft | 424 kts | 228° |
| 2026-05-04 22:50 | 34.84013 | -82.99591 | 36687 ft | 423 kts | 228° |
| 2026-05-04 22:50 | 34.81875 | -83.02061 | 36424 ft | 422 kts | 228° |
| 2026-05-04 22:50 | 34.79736 | -83.04534 | 36168 ft | 421 kts | 228° |
| 2026-05-04 22:50 | 34.77621 | -83.06977 | 35907 ft | 421 kts | 228° |
| 2026-05-04 22:51 | 34.75486 | -83.09439 | 35651 ft | 420 kts | 228° |
| 2026-05-04 22:51 | 34.73363 | -83.11887 | 35414 ft | 421 kts | 227° |
| 2026-05-04 22:51 | 34.71253 | -83.14316 | 35182 ft | 421 kts | 227° |
| 2026-05-04 22:51 | 34.69099 | -83.16794 | 34372 ft | 426 kts | 227° |
| 2026-05-04 22:52 | 34.66948 | -83.19270 | 33513 ft | 427 kts | 227° |
| 2026-05-04 22:52 | 34.64795 | -83.21743 | 32551 ft | 428 kts | 227° |
| 2026-05-04 22:52 | 34.62627 | -83.24233 | 31625 ft | 430 kts | 227° |
| 2026-05-04 22:52 | 34.60426 | -83.26760 | 30657 ft | 432 kts | 226° |
| 2026-05-04 22:53 | 34.58227 | -83.29281 | 29644 ft | 434 kts | 226° |
| 2026-05-04 22:53 | 34.56073 | -83.31747 | 28903 ft | 428 kts | 226° |
| 2026-05-04 22:53 | 34.54812 | -83.33192 | 28408 ft | 425 kts | 226° |
| 2026-05-04 22:54 | 34.52979 | -83.35294 | 27763 ft | 408 kts | 226° |
| 2026-05-04 22:54 | 34.50979 | -83.37588 | 27014 ft | 402 kts | 227° |
| 2026-05-04 22:54 | 34.48934 | -83.39941 | 26342 ft | 401 kts | 227° |
| 2026-05-04 22:54 | 34.46924 | -83.42255 | 25630 ft | 401 kts | 227° |
| 2026-05-04 22:55 | 34.44881 | -83.44604 | 24940 ft | 400 kts | 226° |
| 2026-05-04 22:55 | 34.42885 | -83.46896 | 24258 ft | 398 kts | 226° |
| 2026-05-04 22:55 | 34.40872 | -83.49204 | 23566 ft | 395 kts | 226° |
| 2026-05-04 22:55 | 34.38892 | -83.51472 | 22753 ft | 393 kts | 226° |
| 2026-05-04 22:56 | 34.36913 | -83.53738 | 22038 ft | 388 kts | 226° |
| 2026-05-04 22:56 | 34.34958 | -83.55974 | 21344 ft | 383 kts | 226° |
| 2026-05-04 22:56 | 34.33022 | -83.58190 | 20663 ft | 379 kts | 226° |
| 2026-05-04 22:56 | 34.31126 | -83.60356 | 19994 ft | 376 kts | 226° |
| 2026-05-04 22:57 | 34.29843 | -83.61821 | 19542 ft | 373 kts | 226° |
| 2026-05-04 22:57 | 34.27317 | -83.64645 | 18589 ft | 372 kts | 224° |
| 2026-05-04 22:57 | 34.25385 | -83.66701 | 17864 ft | 370 kts | 223° |
| 2026-05-04 22:57 | 34.23453 | -83.68732 | 17125 ft | 367 kts | 223° |
| 2026-05-04 22:58 | 34.22147 | -83.70106 | 16649 ft | 361 kts | 223° |
| 2026-05-04 22:58 | 34.20304 | -83.72049 | 15983 ft | 348 kts | 223° |
| 2026-05-04 22:58 | 34.18508 | -83.73950 | 15343 ft | 337 kts | 223° |
| 2026-05-04 22:58 | 34.16779 | -83.75784 | 14739 ft | 327 kts | 223° |
| 2026-05-04 22:59 | 34.15097 | -83.77571 | 14157 ft | 319 kts | 223° |
| 2026-05-04 22:59 | 34.13446 | -83.79326 | 13543 ft | 312 kts | 223° |
| 2026-05-04 22:59 | 34.11818 | -83.81053 | 12910 ft | 305 kts | 223° |
| 2026-05-04 22:59 | 34.10242 | -83.82724 | 12343 ft | 298 kts | 222° |
| 2026-05-04 23:00 | 34.08725 | -83.84339 | 11817 ft | 290 kts | 222° |
| 2026-05-04 23:00 | 34.07216 | -83.85959 | 11246 ft | 285 kts | 222° |
| 2026-05-04 23:00 | 34.05767 | -83.87517 | 10732 ft | 281 kts | 222° |
| 2026-05-04 23:00 | 34.04321 | -83.89071 | 10593 ft | 269 kts | 222° |
| 2026-05-04 23:01 | 34.02931 | -83.90564 | 10467 ft | 274 kts | 221° |
| 2026-05-04 23:01 | 34.01492 | -83.92107 | 10354 ft | 280 kts | 221° |
| 2026-05-04 23:01 | 34.00027 | -83.93678 | 10229 ft | 281 kts | 221° |
| 2026-05-04 23:01 | 33.98572 | -83.95235 | 10108 ft | 279 kts | 221° |
| 2026-05-04 23:02 | 33.96899 | -83.96433 | 10024 ft | 277 kts | 200° |
| 2026-05-04 23:02 | 33.95014 | -83.96777 | 10008 ft | 278 kts | 181° |
| 2026-05-04 23:02 | 33.93069 | -83.96708 | 10003 ft | 281 kts | 180° |
| 2026-05-04 23:02 | 33.91131 | -83.96867 | 9979 ft | 278 kts | 197° |
| 2026-05-04 23:03 | 33.89338 | -83.97654 | 9819 ft | 272 kts | 203° |
| 2026-05-04 23:03 | 33.87592 | -83.98538 | 9375 ft | 272 kts | 204° |
| 2026-05-04 23:03 | 33.85851 | -83.99438 | 8874 ft | 274 kts | 204° |
| 2026-05-04 23:03 | 33.84100 | -84.00350 | 8447 ft | 273 kts | 204° |
| 2026-05-04 23:04 | 33.82358 | -84.01263 | 8063 ft | 271 kts | 204° |
| 2026-05-04 23:04 | 33.80640 | -84.02164 | 7657 ft | 270 kts | 204° |
| 2026-05-04 23:04 | 33.78944 | -84.03058 | 7544 ft | 258 kts | 204° |
| 2026-05-04 23:04 | 33.77344 | -84.03903 | 7450 ft | 246 kts | 204° |
| 2026-05-04 23:05 | 33.75805 | -84.04716 | 7379 ft | 235 kts | 204° |
| 2026-05-04 23:05 | 33.74338 | -84.05490 | 7261 ft | 226 kts | 204° |
| 2026-05-04 23:05 | 33.72923 | -84.06236 | 7037 ft | 223 kts | 204° |
| 2026-05-04 23:05 | 33.71498 | -84.06990 | 6756 ft | 220 kts | 204° |
| 2026-05-04 23:06 | 33.70088 | -84.07738 | 6360 ft | 221 kts | 204° |
| 2026-05-04 23:06 | 33.68710 | -84.08475 | 5970 ft | 218 kts | 204° |
| 2026-05-04 23:06 | 33.67333 | -84.09219 | 5433 ft | 218 kts | 204° |
| 2026-05-04 23:06 | 33.66018 | -84.10124 | 4879 ft | 219 kts | 224° |
| 2026-05-04 23:07 | 33.65379 | -84.11756 | 4476 ft | 220 kts | 260° |
| 2026-05-04 23:07 | 33.65204 | -84.13507 | 4387 ft | 204 kts | 260° |
| 2026-05-04 23:07 | 33.65063 | -84.15148 | 4251 ft | 191 kts | 263° |
| 2026-05-04 23:07 | 33.65006 | -84.16741 | 4049 ft | 192 kts | 265° |
| 2026-05-04 23:08 | 33.64987 | -84.18356 | 4030 ft | 194 kts | 266° |
| 2026-05-04 23:08 | 33.64980 | -84.19972 | 4008 ft | 192 kts | 267° |
| 2026-05-04 23:08 | 33.64978 | -84.21564 | 3995 ft | 188 kts | 267° |
| 2026-05-04 23:08 | 33.64970 | -84.23161 | 3849 ft | 194 kts | 266° |
| 2026-05-04 23:09 | 33.64970 | -84.24789 | 3588 ft | 192 kts | 267° |
| 2026-05-04 23:09 | 33.64972 | -84.26343 | 3363 ft | 179 kts | 266° |
| 2026-05-04 23:09 | 33.64967 | -84.27792 | 3129 ft | 167 kts | 266° |
| 2026-05-04 23:09 | 33.64965 | -84.29153 | 2917 ft | 157 kts | 266° |
| 2026-05-04 23:10 | 33.64965 | -84.29572 | 2882 ft | 152 kts | 266° |
| 2026-05-04 23:10 | 33.64964 | -84.30352 | 2724 ft | 146 kts | 266° |
| 2026-05-04 23:10 | 33.64961 | -84.31535 | 2540 ft | 139 kts | 266° |
| 2026-05-04 23:10 | 33.64960 | -84.32683 | 2381 ft | 138 kts | 265° |
| 2026-05-04 23:11 | 33.64958 | -84.33848 | 2182 ft | 139 kts | 266° |
| 2026-05-04 23:11 | 33.64957 | -84.34997 | 2002 ft | 138 kts | 266° |
| 2026-05-04 23:11 | 33.64957 | -84.36145 | 1803 ft | 136 kts | 266° |
| 2026-05-04 23:11 | 33.64955 | -84.37256 | 1645 ft | 134 kts | 267° |
| 2026-05-04 23:12 | 33.64955 | -84.38388 | 1439 ft | 135 kts | 268° |
| 2026-05-04 23:12 | 33.64955 | -84.39503 | 1295 ft | 135 kts | 268° |
| 2026-05-04 23:12 | 33.64954 | -84.40636 | 1081 ft | 134 kts | 268° |
| 2026-05-04 23:12 | 33.64954 | -84.41722 | 1006 ft | 118 kts | 270° |
| 2026-05-04 23:13 | 33.64955 | -84.42526 | 1006 ft | 75 kts | 270° |
| 2026-05-04 23:13 | 33.64978 | -84.42867 | 1005 ft | 18 kts | 305° |
| 2026-05-04 23:13 | 33.65021 | -84.42906 | 1005 ft | 6 kts | 345° |
| 2026-05-04 23:13 | 33.65059 | -84.42879 | 1006 ft | 7 kts | 58° |
| 2026-05-04 23:14 | 33.65065 | -84.42805 | 1006 ft | 11 kts | 90° |
| 2026-05-04 23:14 | 33.65066 | -84.42697 | 1005 ft | 14 kts | 90° |
| 2026-05-04 23:14 | 33.65087 | -84.42599 | 1006 ft | 12 kts | 35° |
| 2026-05-04 23:14 | 33.65157 | -84.42583 | 1006 ft | 10 kts | 21° |
| 2026-05-04 23:15 | 33.65179 | -84.42521 | 1006 ft | 9 kts | 99° |
| 2026-05-04 23:15 | 33.65139 | -84.42478 | 1006 ft | 6 kts | 156° |
| 2026-05-04 23:15 | 33.65134 | -84.42453 | 1006 ft | 1 kts | 49° |
| 2026-05-04 23:15 | 33.65139 | -84.42455 | 1006 ft | 1 kts | 359° |
| 2026-05-04 23:16 | 33.65146 | -84.42455 | 1006 ft | 1 kts | 359° |
| 2026-05-04 23:16 | 33.65153 | -84.42455 | 1006 ft | 0 kts | 359° |